Surface Data

81.1 °F / 27.3 °C
ENE at 21 MPH gusting to 26 MPH
85%
76.5°F / 24.7 °C
29.84" (1010 mb)
10 mile(s)
overcast
2020.04.01 2340 UTC

Surface Data

Raw METARs

2020/04/01 23:40
PKWA 012340Z AUTO 06018G23KT 10SM SCT010 BKN042 OVC049 27/25 A2984 RMK AO2 T02730247

Translated METAR

Kwajalein, Bucholz AAF, Kwajalein KMR ATOL Airport, Marshall Islands (PKWA) 08-43N 167-44E 2M
Apr 01, 2020 - 07:40 PM EDT / 2020.04.01 2340 UTC
Wind: from the ENE (060 degrees) at 21 MPH (18 KT) gusting to 26 MPH (23 KT):0
Visibility: 10 mile(s):0
Sky conditions: overcast
Temperature: 81.1 F (27.3 C)
Dew Point: 76.5 F (24.7 C)
Relative Humidity: 85%
Pressure (altimeter): 29.84 in. Hg (1010 hPa)
ob: PKWA 012340Z AUTO 06018G23KT 10SM SCT010 BKN042 OVC049 27/25 A2984 RMK AO2 T02730247
cycle: 23